Wiconisco, Pennsylvania
Current Conditions -  °F | °C
As of 2:58 PM on Friday 28 Nov 2014 (Local Time) from KMUI Reporting Station
Overcast Overcast  
Wind Chill: 27°   Ceiling: 4200
Heat Index: 33°   Visibility: 10mi
Dew Point: 17°   Wind: 8mph
Humidity: 52%   Direction: 320°NW
Pressure: 30.23"   Gusts: NA
Location:  40.57°N, 76.69°W
Report Text: KMUI 281958Z AUTO 32007KT 10SM BKN042 OVC050 01/M08 A3023 RMK AO2 SLP245 T00081081 $
Loading
Personal Weather Stations






























Interactive Weather Map New forecast layout! Learn more

10-Day Weather Forecast

Advertisements
Track Severe Weather on mobile